createdAt,value
2019-04-10T00:00:48.905Z,64.49
2019-04-10T00:01:48.995Z,64.21
2019-04-10T00:02:48.867Z,64.42
2019-04-10T00:03:48.854Z,64.52
2019-04-10T00:04:49.479Z,64.52
2019-04-10T00:05:49.929Z,64.31
2019-04-10T00:06:49.970Z,64.52
2019-04-10T00:07:49.937Z,64.73
2019-04-10T00:08:48.809Z,64.62
2019-04-10T00:09:49.545Z,64.52
2019-04-10T00:10:48.983Z,64.24
2019-04-10T00:11:49.340Z,64.03
2019-04-10T00:12:49.756Z,63.90
2019-04-10T00:13:49.062Z,64.14
2019-04-10T00:14:48.738Z,64.14
2019-04-10T00:15:48.815Z,64.14
2019-04-10T00:16:48.886Z,64.14
2019-04-10T00:17:49.296Z,64.34
2019-04-10T00:18:48.694Z,64.03
2019-04-10T00:19:48.735Z,63.41
2019-04-10T00:20:49.100Z,63.72
2019-04-10T00:21:49.433Z,63.62
2019-04-10T00:22:48.715Z,63.41
2019-04-10T00:23:49.215Z,63.93
2019-04-10T00:24:48.631Z,63.93
2019-04-10T00:25:48.831Z,64.06
2019-04-10T00:26:48.610Z,63.75
2019-04-10T00:27:48.600Z,62.89
2019-04-10T00:28:49.565Z,63.02
2019-04-10T00:29:48.841Z,62.37
2019-04-10T00:30:49.380Z,62.68
2019-04-10T00:31:48.798Z,62.71
2019-04-10T00:32:48.547Z,63.44
2019-04-10T00:33:49.272Z,63.96
2019-04-10T00:34:49.656Z,62.61
2019-04-10T00:35:48.517Z,63.44
2019-04-10T00:36:49.072Z,62.82
2019-04-10T00:37:49.193Z,62.74
2019-04-10T00:38:48.485Z,62.85
2019-04-10T00:39:48.474Z,62.95
2019-04-10T00:40:48.464Z,63.02
2019-04-10T00:41:48.455Z,63.13
2019-04-10T00:42:49.464Z,62.85
2019-04-10T00:43:48.970Z,62.43
2019-04-10T00:44:48.422Z,62.74
2019-04-10T00:45:49.328Z,62.74
2019-04-10T00:46:48.732Z,63.06
2019-04-10T00:47:48.392Z,62.95
2019-04-10T00:48:48.379Z,62.74
2019-04-10T00:49:48.382Z,62.54
2019-04-10T00:50:48.361Z,62.54
2019-04-10T00:51:48.348Z,62.43
2019-04-10T00:52:48.340Z,62.54
2019-04-10T00:53:48.328Z,62.33
2019-04-10T00:54:48.968Z,62.95
2019-04-10T00:55:48.316Z,62.95
2019-04-10T00:56:48.555Z,62.33
2019-04-10T00:57:48.284Z,62.74
2019-04-10T00:58:48.277Z,62.23
2019-04-10T00:59:48.462Z,62.36
2019-04-10T01:00:48.251Z,62.77
2019-04-10T01:01:48.252Z,62.67
2019-04-10T01:02:49.162Z,62.54
2019-04-10T01:03:49.389Z,62.46
2019-04-10T01:04:48.861Z,62.43
2019-04-10T01:05:49.200Z,62.33
2019-04-10T01:06:48.410Z,62.46
2019-04-10T01:07:48.594Z,61.94
2019-04-10T01:08:48.921Z,62.26
2019-04-10T01:09:48.154Z,62.67
2019-04-10T01:10:48.145Z,62.57
2019-04-10T01:11:48.132Z,62.67
2019-04-10T01:12:48.197Z,62.36
2019-04-10T01:13:48.130Z,61.66
2019-04-10T01:14:48.099Z,62.46
2019-04-10T01:15:49.063Z,62.57
2019-04-10T01:16:48.078Z,62.38
2019-04-10T01:17:48.658Z,62.18
2019-04-10T01:18:48.057Z,62.18
2019-04-10T01:19:48.157Z,62.26
2019-04-10T01:20:48.113Z,62.38
2019-04-10T01:21:48.023Z,62.36
2019-04-10T01:22:48.013Z,62.49
2019-04-10T01:23:49.046Z,62.49
2019-04-10T01:24:48.068Z,62.80
2019-04-10T01:25:48.413Z,61.87
2019-04-10T01:26:47.969Z,62.59
2019-04-10T01:27:48.073Z,61.87
2019-04-10T01:28:49.090Z,62.07
2019-04-10T01:29:47.940Z,61.97
2019-04-10T01:30:48.666Z,61.76
2019-04-10T01:31:47.925Z,62.90
2019-04-10T01:32:48.125Z,62.70
2019-04-10T01:33:47.893Z,62.28
2019-04-10T01:34:47.883Z,62.41
2019-04-10T01:35:48.771Z,62.49
2019-04-10T01:36:48.044Z,62.59
2019-04-10T01:37:53.523Z,62.52
2019-04-10T01:38:49.474Z,62.41
2019-04-10T01:39:48.623Z,62.73
2019-04-10T01:40:47.816Z,62.52
2019-04-10T01:41:48.044Z,63.24
2019-04-10T01:42:59.944Z,62.41
2019-04-10T01:43:48.896Z,63.04
2019-04-10T01:44:47.774Z,62.73
2019-04-10T01:45:47.764Z,62.62
2019-04-10T01:46:48.665Z,63.14
2019-04-10T01:47:47.741Z,63.24
2019-04-10T01:48:47.733Z,62.41
2019-04-10T01:49:48.293Z,62.41
2019-04-10T01:50:47.708Z,62.62
2019-04-10T01:51:47.738Z,62.52
2019-04-10T01:52:47.688Z,62.52
2019-04-10T01:53:48.223Z,62.83
2019-04-10T01:54:47.667Z,62.73
2019-04-10T01:55:47.667Z,62.41
2019-04-10T01:56:47.968Z,62.41
2019-04-10T01:57:48.444Z,62.45
2019-04-10T01:58:47.757Z,62.73
2019-04-10T01:59:47.923Z,63.17
2019-04-10T02:00:48.204Z,62.76
2019-04-10T02:01:48.390Z,62.55
2019-04-10T02:02:47.794Z,62.55
2019-04-10T02:03:47.568Z,62.65
2019-04-10T02:04:48.009Z,62.65
2019-04-10T02:05:47.547Z,62.45
2019-04-10T02:06:47.548Z,62.96
2019-04-10T02:07:59.420Z,62.55
2019-04-10T02:08:48.516Z,62.45
2019-04-10T02:09:47.761Z,62.34
2019-04-10T02:10:48.166Z,62.24
2019-04-10T02:11:48.148Z,62.65
2019-04-10T02:12:47.472Z,62.45
2019-04-10T02:13:47.697Z,62.34
2019-04-10T02:14:47.456Z,62.45
2019-04-10T02:15:47.440Z,62.55
2019-04-10T02:16:47.445Z,62.76
2019-04-10T02:17:48.383Z,62.02
2019-04-10T02:18:47.907Z,62.24
2019-04-10T02:19:48.211Z,62.02
2019-04-10T02:20:47.441Z,62.57
2019-04-10T02:21:47.739Z,62.34
2019-04-10T02:22:48.009Z,62.26
2019-04-10T02:23:47.354Z,62.24
2019-04-10T02:24:47.344Z,62.65
2019-04-10T02:25:47.343Z,62.68
2019-04-10T02:26:47.322Z,62.68
2019-04-10T02:27:47.311Z,63.31
2019-04-10T02:28:47.301Z,62.99
2019-04-10T02:29:48.116Z,63.09
2019-04-10T02:30:47.879Z,63.20
2019-04-10T02:31:48.483Z,62.99
2019-04-10T02:32:48.079Z,62.99
2019-04-10T02:33:47.440Z,62.47
2019-04-10T02:34:48.947Z,62.37
2019-04-10T02:35:47.744Z,63.20
2019-04-10T02:36:48.689Z,63.20
2019-04-10T02:37:51.116Z,62.68
2019-04-10T02:39:00.405Z,62.78
2019-04-10T02:39:52.178Z,62.99
2019-04-10T02:40:49.861Z,62.81
2019-04-10T02:41:47.165Z,62.99
2019-04-10T02:42:47.448Z,63.23
2019-04-10T02:43:47.473Z,62.81
2019-04-10T02:44:48.317Z,62.60
2019-04-10T02:45:47.122Z,62.99
2019-04-10T02:46:47.501Z,62.47
2019-04-10T02:47:47.567Z,62.50
2019-04-10T02:48:47.676Z,63.20
2019-04-10T02:49:48.745Z,63.02
2019-04-10T02:50:47.072Z,62.92
2019-04-10T02:51:47.607Z,62.60
2019-04-10T02:52:48.832Z,62.92
2019-04-10T02:53:48.082Z,62.71
2019-04-10T02:54:47.028Z,62.60
2019-04-10T02:55:47.580Z,62.81
2019-04-10T02:56:47.945Z,63.02
2019-04-10T02:57:47.293Z,62.81
2019-04-10T02:58:47.258Z,63.33
2019-04-10T02:59:47.105Z,62.92
2019-04-10T03:00:48.774Z,63.12
2019-04-10T03:01:47.454Z,62.92
2019-04-10T03:02:47.912Z,63.05
2019-04-10T03:03:46.936Z,62.71
2019-04-10T03:04:46.924Z,63.85
2019-04-10T03:05:46.919Z,63.54
2019-04-10T03:06:47.201Z,64.06
2019-04-10T03:07:48.186Z,63.46
2019-04-10T03:09:02.214Z,63.64
2019-04-10T03:10:00.968Z,63.96
2019-04-10T03:10:53.373Z,64.09
2019-04-10T03:11:47.851Z,64.27
2019-04-10T03:12:48.183Z,64.27
2019-04-10T03:13:47.270Z,64.72
2019-04-10T03:14:47.630Z,64.29
2019-04-10T03:15:47.639Z,64.29
2019-04-10T03:16:47.823Z,64.19
2019-04-10T03:17:46.795Z,64.40
2019-04-10T03:18:47.299Z,64.09
2019-04-10T03:19:46.785Z,64.29
2019-04-10T03:20:46.873Z,64.61
2019-04-10T03:21:47.124Z,64.29
2019-04-10T03:22:47.185Z,64.09
2019-04-10T03:23:47.555Z,64.29
2019-04-10T03:24:46.715Z,64.92
2019-04-10T03:25:46.714Z,64.61
2019-04-10T03:26:47.832Z,64.51
2019-04-10T03:27:46.911Z,64.61
2019-04-10T03:28:47.196Z,64.72
2019-04-10T03:29:46.662Z,64.40
2019-04-10T03:30:48.758Z,64.82
2019-04-10T03:31:47.790Z,64.61
2019-04-10T03:32:52.958Z,64.51
2019-04-10T03:33:49.843Z,64.40
2019-04-10T03:34:48.369Z,64.92
2019-04-10T03:35:47.110Z,64.53
2019-04-10T03:36:47.547Z,64.72
2019-04-10T03:37:46.735Z,64.75
2019-04-10T03:38:55.414Z,64.53
2019-04-10T03:39:47.554Z,64.75
2019-04-10T03:40:46.547Z,64.75
2019-04-10T03:41:46.535Z,64.95
2019-04-10T03:42:47.432Z,64.85
2019-04-10T03:43:46.523Z,64.85
2019-04-10T03:44:47.134Z,64.95
2019-04-10T03:45:46.726Z,64.64
2019-04-10T03:46:46.958Z,64.64
2019-04-10T03:47:47.376Z,65.37
2019-04-10T03:48:47.341Z,65.47
2019-04-10T03:49:46.460Z,65.68
2019-04-10T03:50:46.439Z,65.47
2019-04-10T03:51:47.085Z,65.37
2019-04-10T03:52:46.437Z,65.50
2019-04-10T03:53:46.654Z,65.19
2019-04-10T03:54:46.397Z,65.09
2019-04-10T03:55:47.311Z,66.65
2019-04-10T03:56:46.375Z,66.54
2019-04-10T03:57:46.934Z,66.33
2019-04-10T03:58:47.458Z,66.75
2019-04-10T03:59:47.537Z,66.54
2019-04-10T04:00:46.704Z,66.33
2019-04-10T04:01:47.228Z,66.33
2019-04-10T04:02:46.479Z,66.23
2019-04-10T04:03:46.300Z,66.54
2019-04-10T04:04:46.290Z,66.44
2019-04-10T04:05:46.747Z,66.75
2019-04-10T04:06:46.268Z,66.65
2019-04-10T04:07:46.507Z,66.86
2019-04-10T04:08:46.246Z,66.65
2019-04-10T04:09:46.236Z,67.07
2019-04-10T04:10:46.231Z,67.51
2019-04-10T04:11:46.214Z,66.54
2019-04-10T04:12:46.762Z,66.96
2019-04-10T04:13:46.203Z,67.41
2019-04-10T04:14:46.406Z,67.10
2019-04-10T04:15:46.354Z,66.68
2019-04-10T04:16:47.045Z,67.41
2019-04-10T04:17:46.526Z,67.30
2019-04-10T04:18:46.140Z,67.20
2019-04-10T04:19:46.319Z,67.38
2019-04-10T04:20:46.126Z,66.68
2019-04-10T04:21:46.107Z,67.51
2019-04-10T04:22:46.549Z,68.24
2019-04-10T04:23:46.824Z,67.61
2019-04-10T04:24:46.162Z,68.03
2019-04-10T04:25:46.253Z,68.35
2019-04-10T04:26:46.532Z,68.13
2019-04-10T04:27:46.367Z,68.13
2019-04-10T04:28:46.051Z,68.76
2019-04-10T04:29:46.022Z,68.66
2019-04-10T04:30:46.010Z,68.87
2019-04-10T04:31:46.022Z,68.66
2019-04-10T04:32:46.208Z,68.24
2019-04-10T04:33:46.909Z,68.90
2019-04-10T04:34:45.968Z,68.45
2019-04-10T04:35:45.977Z,68.59
2019-04-10T04:36:48.719Z,69.53
2019-04-10T04:37:46.326Z,69.31
2019-04-10T04:38:45.924Z,69.73
2019-04-10T04:39:45.912Z,69.94
2019-04-10T04:40:46.338Z,70.36
2019-04-10T04:41:45.893Z,70.78
2019-04-10T04:42:45.881Z,70.56
2019-04-10T04:43:47.186Z,70.46
2019-04-10T04:44:45.859Z,70.56
2019-04-10T04:45:46.273Z,70.18
2019-04-10T04:46:45.841Z,70.15
2019-04-10T04:47:45.826Z,70.04
2019-04-10T04:48:45.822Z,70.56
2019-04-10T04:49:46.759Z,70.36
2019-04-10T04:50:45.795Z,70.67
2019-04-10T04:51:45.783Z,71.09
2019-04-10T04:52:45.842Z,71.30
2019-04-10T04:53:45.762Z,70.98
2019-04-10T04:54:45.751Z,71.33
2019-04-10T04:55:45.751Z,71.50
2019-04-10T04:56:46.390Z,71.40
2019-04-10T04:57:45.719Z,71.71
2019-04-10T04:58:45.708Z,71.75
2019-04-10T04:59:45.720Z,71.64
2019-04-10T05:00:45.987Z,71.85
2019-04-10T05:01:46.790Z,71.75
2019-04-10T05:02:45.668Z,71.95
2019-04-10T05:03:46.375Z,72.02
2019-04-10T05:04:45.865Z,72.06
2019-04-10T05:05:45.749Z,72.68
2019-04-10T05:06:45.881Z,72.16
2019-04-10T05:07:55.511Z,72.24
2019-04-10T05:08:46.602Z,72.58
2019-04-10T05:09:45.983Z,72.78
2019-04-10T05:10:45.581Z,72.27
2019-04-10T05:11:45.572Z,72.78
2019-04-10T05:12:45.560Z,72.27
2019-04-10T05:13:45.570Z,72.37
2019-04-10T05:14:46.185Z,72.47
2019-04-10T05:15:45.529Z,73.10
2019-04-10T05:16:45.741Z,72.89
2019-04-10T05:17:45.508Z,72.96
2019-04-10T05:18:45.649Z,72.75
2019-04-10T05:19:45.500Z,72.78
2019-04-10T05:20:49.762Z,72.96
2019-04-10T05:21:46.466Z,73.07
2019-04-10T05:22:45.682Z,73.00
2019-04-10T05:23:45.446Z,73.72
2019-04-10T05:24:45.436Z,72.89
2019-04-10T05:25:45.566Z,73.07
2019-04-10T05:26:45.413Z,72.89
2019-04-10T05:27:45.403Z,72.86
2019-04-10T05:28:45.393Z,72.65
2019-04-10T05:29:45.397Z,72.41
2019-04-10T05:30:45.371Z,73.00
2019-04-10T05:31:45.372Z,71.54
2019-04-10T05:32:45.350Z,71.37
2019-04-10T05:33:45.340Z,71.47
2019-04-10T05:34:45.329Z,71.68
2019-04-10T05:35:45.323Z,71.86
2019-04-10T05:36:45.307Z,71.78
2019-04-10T05:37:45.720Z,71.68
2019-04-10T05:38:45.997Z,71.54
2019-04-10T05:39:50.478Z,70.92
2019-04-10T05:40:46.450Z,71.33
2019-04-10T05:41:46.925Z,71.33
2019-04-10T05:42:45.242Z,71.23
2019-04-10T05:43:45.251Z,70.92
2019-04-10T05:44:45.221Z,71.79
2019-04-10T05:45:45.211Z,71.13
2019-04-10T05:46:46.306Z,69.37
2019-04-10T05:47:45.194Z,68.95
2019-04-10T05:48:46.152Z,69.15
2019-04-10T05:49:45.181Z,69.60
2019-04-10T05:50:53.970Z,70.64
2019-04-10T05:51:46.151Z,70.43
2019-04-10T05:52:45.165Z,70.43
2019-04-10T05:53:45.126Z,70.26
2019-04-10T05:54:45.115Z,70.33
2019-04-10T05:55:45.283Z,70.40
2019-04-10T05:56:45.101Z,70.33
2019-04-10T05:57:45.084Z,70.40
2019-04-10T05:58:45.072Z,70.33
2019-04-10T05:59:45.920Z,70.40
2019-04-10T06:00:45.116Z,70.20
2019-04-10T06:01:45.719Z,69.78
2019-04-10T06:02:45.030Z,70.09
2019-04-10T06:03:45.754Z,69.64
2019-04-10T06:04:45.498Z,69.23
2019-04-10T06:05:44.999Z,70.82
2019-04-10T06:06:44.989Z,70.20
2019-04-10T06:07:45.463Z,69.74
2019-04-10T06:08:44.972Z,68.81
2019-04-10T06:09:53.963Z,68.57
2019-04-10T06:10:45.948Z,69.23
2019-04-10T06:11:45.770Z,68.88
2019-04-10T06:12:44.923Z,69.09
2019-04-10T06:13:45.218Z,68.47
2019-04-10T06:14:44.902Z,68.47
2019-04-10T06:15:45.406Z,68.37
2019-04-10T06:16:44.882Z,68.47
2019-04-10T06:17:44.951Z,67.19
2019-04-10T06:18:45.199Z,67.71
2019-04-10T06:19:44.879Z,66.78
2019-04-10T06:20:45.259Z,67.16
2019-04-10T06:21:45.945Z,66.99
2019-04-10T06:22:45.530Z,67.71
2019-04-10T06:23:44.806Z,67.71
2019-04-10T06:24:44.798Z,67.82
2019-04-10T06:25:45.787Z,68.75
2019-04-10T06:26:45.883Z,68.33
2019-04-10T06:27:45.064Z,68.33
2019-04-10T06:28:44.750Z,69.06
2019-04-10T06:29:46.153Z,68.65
2019-04-10T06:30:44.883Z,68.02
2019-04-10T06:31:45.100Z,67.92
2019-04-10T06:32:45.453Z,67.82
2019-04-10T06:33:44.694Z,68.41
2019-04-10T06:34:45.970Z,68.20
2019-04-10T06:35:44.790Z,67.03
2019-04-10T06:36:45.697Z,66.93
2019-04-10T06:37:44.662Z,66.72
2019-04-10T06:38:45.387Z,66.33
2019-04-10T06:39:46.038Z,66.82
2019-04-10T06:40:44.621Z,66.93
2019-04-10T06:41:44.609Z,67.13
2019-04-10T06:42:50.221Z,66.99
2019-04-10T06:43:45.604Z,66.06
2019-04-10T06:44:44.628Z,66.27
2019-04-10T06:45:44.565Z,66.47
2019-04-10T06:46:44.561Z,66.20
2019-04-10T06:47:44.594Z,67.10
2019-04-10T06:48:44.598Z,66.58
2019-04-10T06:49:45.644Z,66.82
2019-04-10T06:50:45.880Z,67.10
2019-04-10T06:51:45.130Z,66.78
2019-04-10T06:52:45.070Z,66.20
2019-04-10T06:53:44.982Z,67.13
2019-04-10T06:54:44.847Z,66.99
2019-04-10T06:55:44.893Z,66.27
2019-04-10T06:56:45.378Z,65.93
2019-04-10T06:57:50.838Z,65.72
2019-04-10T06:58:45.424Z,66.17
2019-04-10T06:59:44.413Z,66.68
2019-04-10T07:00:49.718Z,66.68
2019-04-10T07:01:52.275Z,66.03
2019-04-10T07:02:46.281Z,66.44
2019-04-10T07:03:52.772Z,65.00
2019-04-10T07:04:52.569Z,66.00
2019-04-10T07:06:00.493Z,64.97
2019-04-10T07:06:57.111Z,65.69
2019-04-10T07:07:52.091Z,64.76
2019-04-10T07:08:47.957Z,65.59
2019-04-10T07:09:45.432Z,65.90
2019-04-10T07:10:52.075Z,64.97
2019-04-10T07:11:45.282Z,65.80
2019-04-10T07:12:44.274Z,65.07
2019-04-10T07:13:44.925Z,64.97
2019-04-10T07:14:48.171Z,64.76
2019-04-10T07:15:46.619Z,65.07
2019-04-10T07:16:44.360Z,65.07
2019-04-10T07:17:44.995Z,64.86
2019-04-10T07:18:48.617Z,65.14
2019-04-10T07:19:45.679Z,65.25
2019-04-10T07:20:44.231Z,64.39
2019-04-10T07:21:44.178Z,63.66
2019-04-10T07:22:46.621Z,63.87
2019-04-10T07:23:44.969Z,64.00
2019-04-10T07:24:44.145Z,64.52
2019-04-10T07:25:46.573Z,64.73
2019-04-10T07:26:46.595Z,64.73
2019-04-10T07:27:44.181Z,64.42
2019-04-10T07:28:46.382Z,64.18
2019-04-10T07:29:44.618Z,64.04
2019-04-10T07:30:44.083Z,63.46
2019-04-10T07:31:44.684Z,63.87
2019-04-10T07:32:47.245Z,63.97
2019-04-10T07:33:45.163Z,64.15
2019-04-10T07:34:44.489Z,63.32
2019-04-10T07:35:44.351Z,63.53
2019-04-10T07:36:45.485Z,63.50
2019-04-10T07:37:44.499Z,63.40
2019-04-10T07:38:43.991Z,62.95
2019-04-10T07:39:44.839Z,62.23
2019-04-10T07:40:44.962Z,62.10
2019-04-10T07:41:45.173Z,61.71
2019-04-10T07:42:44.213Z,62.13
2019-04-10T07:43:44.763Z,62.26
2019-04-10T07:44:43.927Z,63.29
2019-04-10T07:45:43.915Z,62.57
2019-04-10T07:46:43.906Z,62.46
2019-04-10T07:47:44.131Z,62.57
2019-04-10T07:48:43.883Z,63.09
2019-04-10T07:49:44.096Z,62.44
2019-04-10T07:50:45.347Z,62.30
2019-04-10T07:51:44.629Z,61.97
2019-04-10T07:52:43.842Z,61.82
2019-04-10T07:53:43.828Z,61.27
2019-04-10T07:54:44.942Z,61.14
2019-04-10T07:55:56.648Z,60.93
2019-04-10T07:56:44.802Z,60.42
2019-04-10T07:57:47.149Z,61.35
2019-04-10T07:58:44.018Z,61.14
2019-04-10T07:59:43.762Z,61.58
2019-04-10T08:00:44.829Z,61.07
2019-04-10T08:01:43.824Z,61.24
2019-04-10T08:02:43.729Z,60.42
2019-04-10T08:03:43.891Z,61.45
2019-04-10T08:04:43.709Z,61.82
2019-04-10T08:05:44.028Z,62.23
2019-04-10T08:06:44.708Z,62.17
2019-04-10T08:07:43.686Z,61.73
2019-04-10T08:08:44.721Z,60.88
2019-04-10T08:09:44.519Z,60.36
2019-04-10T08:10:44.875Z,60.02
2019-04-10T08:11:44.707Z,60.44
2019-04-10T08:12:49.114Z,59.74
2019-04-10T08:13:44.877Z,60.44
2019-04-10T08:14:44.269Z,60.13
2019-04-10T08:15:43.587Z,59.79
2019-04-10T08:16:43.577Z,59.20
2019-04-10T08:17:44.449Z,59.30
2019-04-10T08:18:43.559Z,60.02
2019-04-10T08:19:43.556Z,59.51
2019-04-10T08:20:43.541Z,60.36
2019-04-10T08:21:44.363Z,60.16
2019-04-10T08:22:44.804Z,60.02
2019-04-10T08:23:44.595Z,60.02
2019-04-10T08:24:45.850Z,60.41
2019-04-10T08:25:43.490Z,58.45
2019-04-10T08:26:43.470Z,58.69
2019-04-10T08:27:43.788Z,60.02
2019-04-10T08:28:43.448Z,60.36
2019-04-10T08:29:43.437Z,60.26
2019-04-10T08:30:43.954Z,60.02
2019-04-10T08:31:44.267Z,59.41
2019-04-10T08:32:54.861Z,59.95
2019-04-10T08:33:44.404Z,59.92
2019-04-10T08:34:44.270Z,60.02
2019-04-10T08:35:43.374Z,60.02
2019-04-10T08:36:43.626Z,60.00
2019-04-10T08:37:43.383Z,60.00
2019-04-10T08:38:43.368Z,59.56
2019-04-10T08:39:46.490Z,58.76
2019-04-10T08:40:43.906Z,59.14
2019-04-10T08:41:43.746Z,58.53
2019-04-10T08:42:45.758Z,59.38
2019-04-10T08:43:43.298Z,58.32
2019-04-10T08:44:44.477Z,59.35
2019-04-10T08:45:48.644Z,59.14
2019-04-10T08:46:44.283Z,59.14
2019-04-10T08:47:44.231Z,58.22
2019-04-10T08:48:43.435Z,58.63
2019-04-10T08:49:43.316Z,58.40
2019-04-10T08:50:44.006Z,58.19
2019-04-10T08:51:43.678Z,58.73
2019-04-10T08:52:44.434Z,58.29
2019-04-10T08:53:43.178Z,57.03
2019-04-10T08:54:43.168Z,56.72
2019-04-10T08:55:43.181Z,57.26
2019-04-10T08:56:43.146Z,57.68
2019-04-10T08:57:43.834Z,57.06
2019-04-10T08:58:43.339Z,57.57
2019-04-10T08:59:44.563Z,58.19
2019-04-10T09:00:43.104Z,56.95
2019-04-10T09:01:43.103Z,58.81
2019-04-10T09:02:44.374Z,58.68
2019-04-10T09:03:43.389Z,57.24
2019-04-10T09:04:43.062Z,57.14
2019-04-10T09:05:43.050Z,57.88
2019-04-10T09:06:43.963Z,58.26
2019-04-10T09:07:43.040Z,57.10
2019-04-10T09:08:43.603Z,57.21
2019-04-10T09:09:43.010Z,57.82
2019-04-10T09:10:42.997Z,57.78
2019-04-10T09:11:43.078Z,56.98
2019-04-10T09:12:43.066Z,56.90
2019-04-10T09:13:42.975Z,57.21
2019-04-10T09:14:43.416Z,57.52
2019-04-10T09:15:42.943Z,56.18
2019-04-10T09:16:42.933Z,56.70
2019-04-10T09:17:43.812Z,57.54
2019-04-10T09:18:42.911Z,57.34
2019-04-10T09:19:42.913Z,57.31
2019-04-10T09:20:42.899Z,57.42
2019-04-10T09:21:43.687Z,56.82
2019-04-10T09:23:07.486Z,56.90
2019-04-10T09:23:50.280Z,57.29
2019-04-10T09:24:44.599Z,56.18
2019-04-10T09:25:43.688Z,56.70
2019-04-10T09:26:42.825Z,57.52
2019-04-10T09:27:43.312Z,57.62
2019-04-10T09:28:42.804Z,57.01
2019-04-10T09:29:42.794Z,56.57
2019-04-10T09:30:42.825Z,55.85
2019-04-10T09:31:42.772Z,57.29
2019-04-10T09:32:42.761Z,57.08
2019-04-10T09:33:43.255Z,56.36
2019-04-10T09:34:45.536Z,57.10
2019-04-10T09:35:42.729Z,56.87
2019-04-10T09:36:43.725Z,56.59
2019-04-10T09:37:42.708Z,56.80
2019-04-10T09:38:43.915Z,57.24
2019-04-10T09:39:43.418Z,57.34
2019-04-10T09:40:42.674Z,57.42
2019-04-10T09:41:43.711Z,57.08
2019-04-10T09:42:43.745Z,56.87
2019-04-10T09:43:42.643Z,56.74
2019-04-10T09:44:42.631Z,55.93
2019-04-10T09:45:43.728Z,56.08
2019-04-10T09:46:42.894Z,56.46
2019-04-10T09:47:43.764Z,56.26
2019-04-10T09:48:42.606Z,56.26
2019-04-10T09:49:45.952Z,55.54
2019-04-10T09:50:43.785Z,56.34
2019-04-10T09:51:42.560Z,54.79
2019-04-10T09:52:42.545Z,56.13
2019-04-10T09:53:43.343Z,55.82
2019-04-10T09:54:42.608Z,55.62
2019-04-10T09:55:42.635Z,54.28
2019-04-10T09:56:42.503Z,55.62
2019-04-10T09:57:43.097Z,56.13
2019-04-10T09:58:42.725Z,55.93
2019-04-10T09:59:42.718Z,55.21
2019-04-10T10:00:43.654Z,55.64
2019-04-10T10:01:42.449Z,55.41
2019-04-10T10:02:42.435Z,55.38
2019-04-10T10:03:42.425Z,54.28
2019-04-10T10:04:42.414Z,54.36
2019-04-10T10:05:42.505Z,53.77
2019-04-10T10:06:43.248Z,53.15
2019-04-10T10:07:43.064Z,52.97
2019-04-10T10:08:42.369Z,53.07
2019-04-10T10:09:43.145Z,53.66
2019-04-10T10:10:42.355Z,53.12
2019-04-10T10:11:42.755Z,52.61
2019-04-10T10:12:42.910Z,53.12
2019-04-10T10:13:42.314Z,53.66
2019-04-10T10:14:42.355Z,54.38
2019-04-10T10:15:43.190Z,53.77
2019-04-10T10:16:42.282Z,54.59
2019-04-10T10:17:42.271Z,54.69
2019-04-10T10:18:42.271Z,54.49
2019-04-10T10:19:42.644Z,53.45
2019-04-10T10:20:42.238Z,54.30
2019-04-10T10:21:42.815Z,54.90
2019-04-10T10:22:42.216Z,54.79
2019-04-10T10:23:43.128Z,53.77
2019-04-10T10:24:42.645Z,54.79
2019-04-10T10:25:42.183Z,54.43
2019-04-10T10:26:44.524Z,54.13
2019-04-10T10:27:42.694Z,53.30
2019-04-10T10:28:42.930Z,53.74
2019-04-10T10:29:42.146Z,53.43
2019-04-10T10:30:42.141Z,52.71
2019-04-10T10:31:42.117Z,52.43
2019-04-10T10:32:42.653Z,52.84
2019-04-10T10:33:42.095Z,53.05
2019-04-10T10:34:42.792Z,52.92
2019-04-10T10:35:43.094Z,52.69
2019-04-10T10:36:46.229Z,53.10
2019-04-10T10:37:43.053Z,52.48
2019-04-10T10:38:43.061Z,53.30
2019-04-10T10:39:43.055Z,53.10
2019-04-10T10:40:42.019Z,53.33
2019-04-10T10:41:42.628Z,53.02
2019-04-10T10:42:42.009Z,53.72
2019-04-10T10:43:42.594Z,54.33
2019-04-10T10:44:42.491Z,51.87
2019-04-10T10:45:42.927Z,51.28
2019-04-10T10:46:41.956Z,52.73
2019-04-10T10:47:41.944Z,51.40
2019-04-10T10:48:42.085Z,51.81
2019-04-10T10:49:42.361Z,51.48
2019-04-10T10:50:41.911Z,51.35
2019-04-10T10:51:42.602Z,52.28
2019-04-10T10:52:41.889Z,50.94
2019-04-10T10:53:41.878Z,50.96
2019-04-10T10:54:41.880Z,51.35
2019-04-10T10:55:42.069Z,50.43
2019-04-10T10:56:42.581Z,50.92
2019-04-10T10:57:41.835Z,51.23
2019-04-10T10:58:41.882Z,51.35
2019-04-10T10:59:41.919Z,51.79
2019-04-10T11:00:41.812Z,52.28
2019-04-10T11:01:42.133Z,52.28
2019-04-10T11:02:41.785Z,52.20
2019-04-10T11:03:42.548Z,53.15
2019-04-10T11:04:41.758Z,53.30
2019-04-10T11:05:42.270Z,53.20
2019-04-10T11:06:51.473Z,50.92
2019-04-10T11:07:42.928Z,50.53
2019-04-10T11:08:41.804Z,51.35
2019-04-10T11:09:41.972Z,50.10
2019-04-10T11:10:41.691Z,51.25
2019-04-10T11:11:41.681Z,50.92
2019-04-10T11:12:42.354Z,51.33
2019-04-10T11:13:41.658Z,51.23
2019-04-10T11:14:41.646Z,50.10
2019-04-10T11:15:45.392Z,50.92
2019-04-10T11:16:41.870Z,51.23
2019-04-10T11:17:42.166Z,50.92
2019-04-10T11:18:42.478Z,51.35
2019-04-10T11:19:41.592Z,51.97
2019-04-10T11:20:41.861Z,51.87
2019-04-10T11:21:42.866Z,51.87
2019-04-10T11:22:42.400Z,51.95
2019-04-10T11:23:42.423Z,51.45
2019-04-10T11:24:43.410Z,51.37
2019-04-10T11:25:41.528Z,50.94
2019-04-10T11:26:42.629Z,50.12
2019-04-10T11:27:42.025Z,52.17
2019-04-10T11:28:41.941Z,50.30
2019-04-10T11:29:42.671Z,50.28
2019-04-10T11:30:42.515Z,49.97
2019-04-10T11:31:41.760Z,49.97
2019-04-10T11:32:42.257Z,50.28
2019-04-10T11:33:41.438Z,50.20
2019-04-10T11:34:42.626Z,51.02
2019-04-10T11:35:41.486Z,50.43
2019-04-10T11:36:42.520Z,50.22
2019-04-10T11:37:44.728Z,50.61
2019-04-10T11:38:44.956Z,49.89
2019-04-10T11:39:43.980Z,48.97
2019-04-10T11:40:41.494Z,50.10
2019-04-10T11:41:41.842Z,50.32
2019-04-10T11:42:42.845Z,49.40
2019-04-10T11:43:41.733Z,49.94
2019-04-10T11:44:45.098Z,49.94
2019-04-10T11:45:45.920Z,49.22
2019-04-10T11:46:42.306Z,50.56
2019-04-10T11:47:42.560Z,51.64
2019-04-10T11:48:44.720Z,51.43
2019-04-10T11:49:43.419Z,50.90
2019-04-10T11:50:43.917Z,49.54
2019-04-10T11:51:41.273Z,48.82
2019-04-10T11:52:47.991Z,50.07
2019-04-10T11:53:45.397Z,49.97
2019-04-10T11:54:44.890Z,50.40
2019-04-10T11:55:46.821Z,50.10
2019-04-10T11:56:43.086Z,48.38
2019-04-10T11:59:44.738Z,49.91
2019-04-10T12:01:43.941Z,49.51
2019-04-10T12:02:43.856Z,48.79
2019-04-10T12:03:48.074Z,49.40
2019-04-10T12:05:42.418Z,50.02
2019-04-10T12:06:43.083Z,50.20
2019-04-10T12:08:10.965Z,48.84
2019-04-10T12:09:03.802Z,48.54
2019-04-10T12:11:42.031Z,46.20
2019-04-10T12:12:41.689Z,47.42
2019-04-10T12:13:40.999Z,44.68
2019-04-10T12:14:40.987Z,46.61
2019-04-10T12:15:40.977Z,46.91
2019-04-10T12:16:41.083Z,46.20
2019-04-10T12:17:40.968Z,47.12
2019-04-10T12:18:40.946Z,47.22
2019-04-10T12:19:40.933Z,48.33
2019-04-10T12:20:41.092Z,47.28
2019-04-10T12:21:42.041Z,44.20
2019-04-10T12:22:40.901Z,43.79
2019-04-10T12:23:40.983Z,44.29
2019-04-10T12:24:40.879Z,43.26
2019-04-10T12:25:40.886Z,43.90
2019-04-10T12:26:40.857Z,44.00
2019-04-10T12:27:41.192Z,44.08
2019-04-10T12:28:40.835Z,45.74
2019-04-10T12:29:40.834Z,46.67
2019-04-10T12:30:41.667Z,45.54
2019-04-10T12:31:41.882Z,46.56
2019-04-10T12:32:41.091Z,45.23
2019-04-10T12:33:40.780Z,45.03
2019-04-10T12:34:40.769Z,44.51
2019-04-10T12:35:40.770Z,45.84
2019-04-10T12:36:40.746Z,46.34
2019-04-10T12:37:41.248Z,46.34
2019-04-10T12:38:41.593Z,44.26
2019-04-10T12:39:41.250Z,44.39
2019-04-10T12:40:40.707Z,44.59
2019-04-10T12:41:41.639Z,45.43
2019-04-10T12:42:40.728Z,46.23
2019-04-10T12:43:41.117Z,46.75
2019-04-10T12:44:40.912Z,47.26
2019-04-10T12:45:40.649Z,44.26
2019-04-10T12:46:41.538Z,44.96
2019-04-10T12:47:41.627Z,44.04
2019-04-10T12:48:41.083Z,43.53
2019-04-10T12:49:41.469Z,43.04
2019-04-10T12:50:41.273Z,43.34
2019-04-10T12:51:41.476Z,43.75
2019-04-10T12:52:40.910Z,44.35
2019-04-10T12:53:40.587Z,43.04
2019-04-10T12:54:40.817Z,42.54
2019-04-10T12:55:41.668Z,43.16
2019-04-10T12:56:40.529Z,43.67
2019-04-10T12:57:41.325Z,43.16
2019-04-10T12:58:40.507Z,44.06